Time;durP1;ratioP1;P1;durP2;ratioP2;P2;SDS_P1;SDS_P2;PMS_P1;PMS_P2;Temp;Humidity;BMP_temperature;BMP_pressure;BME280_temperature;BME280_humidity;BME280_pressure;Samples;Min_cycle;Max_cycle;Signal;HPM_P1;HPM_P2
2022/03/13 00:01:26;;;;;;;9.70;7.17;;;4.10;41.20;;;;;;6063254;23;20175;-89
2022/03/13 00:03:52;;;;;;;10.93;7.37;;;4.10;40.90;;;;;;6039698;23;20188;-88
2022/03/13 00:06:27;;;;;;;14.17;7.67;;;4.10;41.00;;;;;;6039612;23;20513;-89
2022/03/13 00:08:55;;;;;;;12.27;7.60;;;3.90;41.70;;;;;;6040388;23;20218;-88
2022/03/13 00:11:21;;;;;;;12.10;7.90;;;3.80;42.30;;;;;;6041010;23;20152;-89
2022/03/13 00:13:51;;;;;;;12.47;8.17;;;3.70;42.60;;;;;;6039707;23;20675;-88
2022/03/13 00:16:17;;;;;;;11.67;8.40;;;3.60;42.90;;;;;;6039452;23;20159;-88
2022/03/13 00:18:47;;;;;;;10.83;8.10;;;3.50;43.20;;;;;;6039039;23;20184;-88
2022/03/13 00:21:15;;;;;;;15.53;8.03;;;3.40;43.60;;;;;;6041250;23;20229;-88
2022/03/13 00:23:41;;;;;;;10.50;7.83;;;3.30;43.70;;;;;;6039213;23;20187;-89
2022/03/13 00:26:08;;;;;;;11.97;8.07;;;3.20;44.00;;;;;;6039722;23;20166;-89
2022/03/13 00:28:34;;;;;;;16.00;8.27;;;3.10;44.40;;;;;;6041244;23;20243;-90
2022/03/13 00:31:00;;;;;;;17.30;7.60;;;3.10;44.10;;;;;;6069083;23;20180;-88
2022/03/13 00:33:27;;;;;;;9.57;7.20;;;3.00;44.30;;;;;;6071462;23;20217;-88
2022/03/13 00:35:52;;;;;;;12.13;7.63;;;3.00;44.20;;;;;;6069861;23;20162;-88
2022/03/13 00:38:22;;;;;;;11.57;8.53;;;3.00;44.30;;;;;;6069718;23;20162;-88
2022/03/13 00:40:51;;;;;;;15.47;7.63;;;2.90;44.90;;;;;;6070155;23;20179;-87
2022/03/13 00:43:22;;;;;;;11.43;7.43;;;2.90;44.40;;;;;;6069576;23;20178;-88
2022/03/13 00:45:48;;;;;;;12.70;8.20;;;2.90;44.30;;;;;;6070318;23;20492;-87
2022/03/13 00:48:15;;;;;;;14.23;7.67;;;2.90;44.80;;;;;;6070180;23;20218;-88
2022/03/13 00:50:40;;;;;;;9.70;7.10;;;2.80;44.80;;;;;;6069900;23;20175;-87
2022/03/13 00:53:06;;;;;;;10.03;7.77;;;2.90;44.60;;;;;;6071586;23;20176;-89
2022/03/13 00:55:32;;;;;;;13.83;8.37;;;2.90;45.00;;;;;;6070077;23;20610;-88
2022/03/13 00:57:58;;;;;;;12.43;7.23;;;2.80;45.30;;;;;;6071751;23;20299;-88
2022/03/13 01:00:24;;;;;;;12.00;7.57;;;2.70;45.80;;;;;;6071560;23;20173;-89
2022/03/13 01:02:49;;;;;;;11.50;8.37;;;2.60;46.00;;;;;;6069720;23;20192;-89
2022/03/13 01:05:26;;;;;;;16.43;7.87;;;2.50;46.20;;;;;;6070330;23;20162;-88
2022/03/13 01:07:55;;;;;;;12.33;8.00;;;2.40;46.60;;;;;;6071446;23;20150;-88
2022/03/13 01:10:22;;;;;;;10.93;8.10;;;2.40;46.70;;;;;;6069654;23;20556;-89
2022/03/13 01:12:50;;;;;;;11.87;7.73;;;2.40;46.30;;;;;;6069468;23;20677;-89
2022/03/13 01:15:16;;;;;;;15.53;7.77;;;2.40;46.50;;;;;;6070921;23;20162;-89
2022/03/13 01:17:43;;;;;;;9.07;7.43;;;2.30;46.80;;;;;;6069507;23;20180;-90
2022/03/13 01:20:21;;;;;;;10.77;7.80;;;2.20;46.80;;;;;;6069385;23;20184;-89
2022/03/13 01:22:48;;;;;;;12.50;8.13;;;2.20;47.00;;;;;;6069472;23;20186;-89
2022/03/13 01:25:15;;;;;;;11.93;8.27;;;2.20;47.00;;;;;;6070950;23;20182;-90
2022/03/13 01:27:40;;;;;;;11.37;7.33;;;2.10;47.00;;;;;;6070617;23;20153;-90
2022/03/13 01:30:07;;;;;;;11.90;7.77;;;2.00;47.00;;;;;;6068974;23;20726;-88
2022/03/13 01:32:32;;;;;;;11.50;8.10;;;2.00;47.20;;;;;;6069091;23;20158;-88
2022/03/13 01:34:59;;;;;;;11.73;7.67;;;2.00;46.60;;;;;;6069362;23;20214;-90
2022/03/13 01:37:36;;;;;;;11.87;7.50;;;2.00;46.60;;;;;;6069052;23;20165;-89
2022/03/13 01:40:14;;;;;;;12.07;7.37;;;2.10;46.50;;;;;;6070615;23;20576;-88
2022/03/13 01:42:40;;;;;;;16.67;7.90;;;2.10;47.40;;;;;;6070907;23;20174;-89
2022/03/13 01:45:10;;;;;;;12.83;7.60;;;2.00;48.30;;;;;;6068969;23;20190;-88
2022/03/13 01:47:36;;;;;;;13.20;8.40;;;1.90;48.30;;;;;;6068953;23;20163;-88
2022/03/13 01:50:03;;;;;;;13.00;8.57;;;1.90;48.60;;;;;;6069055;23;20206;-88
2022/03/13 01:52:29;;;;;;;13.80;8.37;;;1.90;49.60;;;;;;6071371;23;20549;-88
2022/03/13 01:54:56;;;;;;;11.87;8.47;;;1.80;49.90;;;;;;6069183;23;20611;-89
2022/03/13 01:57:23;;;;;;;12.57;8.33;;;1.80;49.80;;;;;;6070851;23;20162;-88
2022/03/13 01:59:51;;;;;;;10.83;8.10;;;1.80;49.60;;;;;;6070484;23;20174;-89
2022/03/13 02:02:20;;;;;;;15.67;8.63;;;1.80;50.00;;;;;;6071021;23;20156;-88
2022/03/13 02:04:54;;;;;;;11.87;8.60;;;1.70;50.60;;;;;;6069486;23;20162;-88
2022/03/13 02:07:21;;;;;;;16.00;8.60;;;1.50;51.80;;;;;;6069387;23;20214;-88
2022/03/13 02:09:48;;;;;;;12.47;8.47;;;1.40;51.70;;;;;;6069308;23;20177;-88
2022/03/13 02:12:17;;;;;;;15.93;9.10;;;1.30;52.00;;;;;;6070926;23;20161;-87
2022/03/13 02:14:43;;;;;;;12.37;9.20;;;1.20;52.50;;;;;;6071045;23;20153;-87
2022/03/13 02:17:08;;;;;;;17.03;8.83;;;1.10;52.70;;;;;;6068921;23;20166;-87
2022/03/13 02:19:34;;;;;;;14.67;9.33;;;1.10;52.90;;;;;;6069342;23;20517;-87
2022/03/13 02:22:00;;;;;;;14.43;9.10;;;1.10;53.10;;;;;;6068765;23;20155;-87
2022/03/13 02:24:26;;;;;;;13.93;8.80;;;1.10;52.80;;;;;;6068556;23;20254;-87
2022/03/13 02:26:57;;;;;;;15.63;8.77;;;1.20;52.80;;;;;;6070346;23;20148;-89
2022/03/13 02:29:23;;;;;;;15.37;9.43;;;1.20;52.30;;;;;;6068302;23;20192;-87
2022/03/13 02:31:49;;;;;;;13.50;8.50;;;1.20;52.50;;;;;;6068977;23;20219;-88
2022/03/13 02:34:15;;;;;;;15.80;8.63;;;1.30;52.40;;;;;;6068285;23;20547;-88
2022/03/13 02:36:54;;;;;;;14.57;9.10;;;1.20;52.70;;;;;;6068643;23;20619;-89
2022/03/13 02:39:19;;;;;;;15.50;9.10;;;1.20;52.60;;;;;;6068445;23;20212;-88
2022/03/13 02:41:46;;;;;;;14.53;8.97;;;1.20;52.90;;;;;;6068302;23;20164;-89
2022/03/13 02:44:14;;;;;;;12.83;8.23;;;1.30;52.40;;;;;;6068968;23;20175;-88
2022/03/13 02:47:01;;;;;;;16.00;8.83;;;1.40;51.70;;;;;;6068459;23;20497;-89
2022/03/13 02:49:29;;;;;;;11.70;8.43;;;1.40;52.00;;;;;;6070032;23;20183;-89
2022/03/13 02:51:58;;;;;;;14.20;8.47;;;1.40;51.40;;;;;;6068773;23;20180;-89
2022/03/13 02:54:24;;;;;;;13.30;8.43;;;1.50;51.20;;;;;;6069293;23;20167;-89
2022/03/13 02:56:50;;;;;;;13.97;8.17;;;1.50;51.20;;;;;;6068364;23;20163;-88
2022/03/13 02:59:15;;;;;;;11.47;7.97;;;1.60;50.80;;;;;;6070000;23;20180;-88
2022/03/13 03:01:41;;;;;;;12.70;7.90;;;1.60;50.80;;;;;;6068429;23;20160;-89
2022/03/13 03:04:07;;;;;;;13.50;8.23;;;1.60;50.70;;;;;;6068495;23;20468;-88
2022/03/13 03:06:34;;;;;;;12.63;8.17;;;1.60;50.80;;;;;;6068383;23;20197;-89
2022/03/13 03:09:02;;;;;;;14.23;8.43;;;1.60;50.80;;;;;;6069645;23;20171;-88
2022/03/13 03:11:28;;;;;;;12.00;8.83;;;1.60;50.50;;;;;;6069772;23;20148;-89
2022/03/13 03:13:53;;;;;;;12.47;8.33;;;1.50;50.90;;;;;;6068588;23;20177;-88
2022/03/13 03:16:19;;;;;;;12.53;8.33;;;1.50;50.90;;;;;;6070083;23;20500;-87
2022/03/13 03:18:46;;;;;;;11.47;8.30;;;1.50;50.80;;;;;;6068120;23;20624;-91
2022/03/13 03:21:13;;;;;;;13.83;9.63;;;1.40;50.80;;;;;;6068021;23;20187;-89
2022/03/13 03:23:39;;;;;;;14.43;9.33;;;1.40;51.10;;;;;;6069403;23;20178;-88
2022/03/13 03:26:06;;;;;;;16.43;8.37;;;1.40;50.80;;;;;;6067763;23;20607;-88
2022/03/13 03:28:32;;;;;;;13.47;8.57;;;1.50;50.60;;;;;;6067817;23;20157;-89
2022/03/13 03:31:02;;;;;;;14.13;7.77;;;1.50;50.40;;;;;;6067821;23;20193;-88
2022/03/13 03:33:28;;;;;;;12.53;8.30;;;1.50;50.00;;;;;;6068452;23;20616;-90
2022/03/13 03:35:54;;;;;;;13.13;8.53;;;1.50;50.50;;;;;;6067865;23;20242;-89
2022/03/13 03:38:19;;;;;;;11.93;7.77;;;1.40;50.60;;;;;;6067851;23;20167;-88
2022/03/13 03:40:45;;;;;;;15.10;8.40;;;1.40;51.00;;;;;;6067851;23;20278;-89
2022/03/13 03:43:11;;;;;;;13.33;7.97;;;1.40;50.80;;;;;;6069361;23;20172;-88
2022/03/13 03:45:36;;;;;;;13.97;8.70;;;1.40;50.20;;;;;;6067983;23;20163;-88
2022/03/13 03:48:02;;;;;;;14.40;8.67;;;1.40;50.50;;;;;;6067786;23;20160;-89
2022/03/13 03:50:27;;;;;;;12.53;7.67;;;1.30;50.60;;;;;;6067675;23;20212;-87
2022/03/13 03:52:57;;;;;;;19.23;8.53;;;1.30;50.80;;;;;;6067935;23;20172;-87
2022/03/13 03:55:24;;;;;;;13.33;8.23;;;1.30;50.50;;;;;;6067983;23;20638;-88
2022/03/13 03:57:50;;;;;;;16.60;8.87;;;1.30;50.80;;;;;;6069452;23;20163;-88
2022/03/13 04:00:17;;;;;;;12.37;7.40;;;1.40;50.50;;;;;;6067575;23;20181;-89
2022/03/13 04:02:43;;;;;;;16.50;8.30;;;1.30;50.70;;;;;;6069185;23;20171;-90
2022/03/13 04:05:10;;;;;;;20.10;8.20;;;1.40;50.20;;;;;;6067738;23;20160;-89
2022/03/13 04:07:39;;;;;;;17.23;8.87;;;1.50;49.50;;;;;;6067891;23;20181;-90
2022/03/13 04:10:06;;;;;;;22.33;8.47;;;1.50;48.70;;;;;;6067597;23;20182;-88
2022/03/13 04:12:34;;;;;;;15.03;8.93;;;1.50;49.30;;;;;;6068934;23;20159;-89
2022/03/13 04:15:01;;;;;;;12.13;7.93;;;1.50;49.20;;;;;;6069831;23;20151;-88
2022/03/13 04:17:27;;;;;;;13.03;8.13;;;1.50;48.80;;;;;;6068057;23;20165;-89
2022/03/13 04:19:53;;;;;;;13.97;8.80;;;1.60;48.50;;;;;;6067987;23;20191;-89
2022/03/13 04:22:18;;;;;;;14.23;7.70;;;1.50;49.00;;;;;;6067866;23;20540;-89
2022/03/13 04:24:44;;;;;;;13.93;8.23;;;1.50;48.80;;;;;;6069588;23;20619;-88
2022/03/13 04:27:10;;;;;;;13.97;9.17;;;1.50;48.70;;;;;;6067707;23;20160;-88
2022/03/13 04:29:35;;;;;;;11.03;7.57;;;1.50;49.10;;;;;;6067701;23;20191;-88
2022/03/13 04:32:04;;;;;;;14.53;8.53;;;1.40;49.40;;;;;;6069775;23;20268;-88
2022/03/13 04:34:29;;;;;;;17.67;9.23;;;1.40;48.90;;;;;;6068126;23;20172;-89
2022/03/13 04:36:56;;;;;;;19.00;8.50;;;1.50;48.90;;;;;;6068018;23;20156;-88
2022/03/13 04:39:21;;;;;;;13.93;9.10;;;1.50;49.00;;;;;;6067658;23;20179;-87
2022/03/13 04:41:47;;;;;;;14.83;8.53;;;1.40;49.00;;;;;;6068193;23;20165;-88
2022/03/13 04:44:14;;;;;;;19.17;8.87;;;1.50;49.00;;;;;;6067617;23;20182;-88
2022/03/13 04:46:41;;;;;;;15.27;9.27;;;1.40;49.00;;;;;;6069520;23;20179;-87
2022/03/13 04:49:07;;;;;;;13.20;8.57;;;1.30;49.40;;;;;;6067850;23;20180;-88
2022/03/13 04:51:32;;;;;;;13.47;9.00;;;1.30;49.60;;;;;;6069698;23;20219;-88
2022/03/13 04:53:58;;;;;;;17.37;9.53;;;1.30;49.80;;;;;;6067988;23;20167;-87
2022/03/13 04:56:23;;;;;;;14.40;8.47;;;1.20;50.20;;;;;;6067785;23;20174;-88
2022/03/13 04:58:50;;;;;;;16.17;9.17;;;1.20;49.60;;;;;;6069852;23;20172;-88
2022/03/13 05:01:19;;;;;;;17.20;8.90;;;1.20;49.80;;;;;;6068172;23;20215;-87
2022/03/13 05:03:45;;;;;;;16.17;9.47;;;1.20;49.90;;;;;;6068098;23;20205;-89
2022/03/13 05:06:12;;;;;;;17.77;9.40;;;1.10;49.80;;;;;;6068838;23;20151;-87
2022/03/13 05:08:37;;;;;;;16.40;9.13;;;1.20;49.60;;;;;;6069382;23;20151;-87
2022/03/13 05:11:06;;;;;;;17.50;9.10;;;1.10;49.80;;;;;;6068313;23;20180;-88
2022/03/13 05:13:32;;;;;;;12.47;8.10;;;1.10;49.80;;;;;;6068448;23;20163;-89
2022/03/13 05:15:58;;;;;;;15.80;8.73;;;1.10;50.10;;;;;;6069040;23;20167;-87
2022/03/13 05:18:23;;;;;;;14.83;8.30;;;1.00;49.80;;;;;;6069108;23;20167;-88
2022/03/13 05:20:49;;;;;;;14.17;8.03;;;1.10;49.50;;;;;;6069246;23;20213;-88
2022/03/13 05:23:15;;;;;;;11.70;7.83;;;1.10;49.60;;;;;;6068995;23;20181;-89
2022/03/13 05:25:41;;;;;;;17.23;9.23;;;1.10;49.30;;;;;;6069142;23;20163;-89
2022/03/13 05:28:09;;;;;;;16.50;10.07;;;1.10;49.20;;;;;;6069352;23;20306;-86
2022/03/13 05:30:36;;;;;;;15.77;8.20;;;1.10;49.80;;;;;;6055529;23;20199;-90
2022/03/13 05:33:02;;;;;;;14.30;7.80;;;1.10;49.50;;;;;;6044358;23;20167;-90
2022/03/13 05:35:27;;;;;;;15.97;8.67;;;1.10;49.40;;;;;;6044581;23;20499;-90
2022/03/13 05:37:53;;;;;;;14.87;8.57;;;1.00;49.70;;;;;;6044229;23;20170;-90
2022/03/13 05:40:20;;;;;;;13.83;8.07;;;1.00;49.80;;;;;;6044155;23;20188;-90
2022/03/13 05:42:49;;;;;;;13.13;8.80;;;0.90;50.10;;;;;;6044146;23;20692;-90
2022/03/13 05:45:16;;;;;;;13.20;9.00;;;0.90;50.00;;;;;;6044463;23;20578;-91
2022/03/13 05:47:47;;;;;;;16.63;9.10;;;0.90;49.80;;;;;;6044750;23;20156;-90
2022/03/13 05:50:13;;;;;;;15.83;8.47;;;0.90;50.50;;;;;;6044549;23;20185;-90
2022/03/13 05:52:41;;;;;;;19.57;9.80;;;0.80;50.60;;;;;;6044583;23;20191;-91
2022/03/13 05:55:07;;;;;;;14.57;9.50;;;0.80;50.50;;;;;;6069669;23;20155;-90
2022/03/13 05:57:34;;;;;;;12.50;8.17;;;0.80;50.90;;;;;;6070374;23;20151;-91
2022/03/13 05:59:59;;;;;;;18.77;10.13;;;0.90;50.10;;;;;;6044720;23;20246;-91
2022/03/13 06:02:25;;;;;;;16.93;9.07;;;0.90;50.50;;;;;;6070103;23;20163;-90
2022/03/13 06:04:52;;;;;;;19.03;9.23;;;0.80;51.10;;;;;;6069906;23;20219;-90
2022/03/13 06:07:18;;;;;;;14.40;9.67;;;0.80;50.90;;;;;;6045066;23;20165;-90
2022/03/13 06:09:44;;;;;;;13.70;9.37;;;0.80;51.20;;;;;;6044359;23;20258;-91
2022/03/13 06:12:09;;;;;;;14.87;9.57;;;0.80;51.00;;;;;;6045029;23;20168;-91
2022/03/13 06:14:35;;;;;;;15.87;9.33;;;0.80;51.70;;;;;;6044729;23;20170;-91
2022/03/13 06:17:00;;;;;;;11.97;8.43;;;0.80;51.40;;;;;;6069783;23;20190;-90
2022/03/13 06:19:26;;;;;;;15.07;8.70;;;0.80;51.40;;;;;;6044681;23;20710;-91
2022/03/13 06:21:52;;;;;;;12.47;8.90;;;0.80;51.90;;;;;;6043953;23;20612;-91
2022/03/13 06:24:18;;;;;;;13.80;8.33;;;0.80;51.80;;;;;;6043707;23;20183;-91
2022/03/13 06:26:43;;;;;;;16.57;9.33;;;0.80;52.10;;;;;;6069958;23;20155;-90
2022/03/13 06:29:09;;;;;;;20.37;9.47;;;0.90;52.10;;;;;;6043752;23;20161;-91
2022/03/13 06:31:35;;;;;;;14.93;9.23;;;0.90;52.30;;;;;;6067632;23;20176;-90
2022/03/13 06:34:01;;;;;;;19.37;9.90;;;1.00;52.00;;;;;;6067550;23;20175;-90
2022/03/13 06:36:27;;;;;;;15.70;9.10;;;1.10;51.80;;;;;;6068165;23;20152;-90
2022/03/13 06:38:53;;;;;;;16.10;8.67;;;1.20;51.70;;;;;;6068628;23;20185;-90
2022/03/13 06:41:19;;;;;;;14.57;9.67;;;1.30;50.60;;;;;;6067893;23;20521;-90
2022/03/13 06:43:45;;;;;;;18.67;9.03;;;1.50;49.70;;;;;;6069715;23;20543;-91
2022/03/13 06:46:11;;;;;;;16.20;8.90;;;1.60;49.20;;;;;;6068298;23;20192;-90
2022/03/13 06:48:36;;;;;;;20.40;9.50;;;1.80;49.50;;;;;;6068077;23;20167;-90
2022/03/13 06:51:02;;;;;;;15.77;9.00;;;1.80;48.70;;;;;;6067343;23;20227;-90
2022/03/13 06:53:28;;;;;;;13.07;8.50;;;1.90;48.20;;;;;;6067285;23;20181;-90
2022/03/13 06:55:54;;;;;;;19.03;9.43;;;2.00;47.70;;;;;;6067449;23;20159;-90
2022/03/13 06:58:20;;;;;;;17.20;8.90;;;2.10;47.20;;;;;;6067369;23;20249;-90
2022/03/13 07:00:45;;;;;;;14.67;8.93;;;2.20;46.10;;;;;;6067913;23;20174;-90
2022/03/13 07:03:13;;;;;;;14.53;8.93;;;2.30;46.50;;;;;;6068779;23;20220;-90
2022/03/13 07:05:38;;;;;;;17.37;8.70;;;2.30;46.50;;;;;;6068917;23;20153;-91
2022/03/13 07:08:04;;;;;;;15.13;9.40;;;2.40;46.40;;;;;;6067165;23;20671;-90
2022/03/13 07:10:29;;;;;;;14.27;7.97;;;2.40;46.00;;;;;;6067677;23;20209;-90
2022/03/13 07:12:57;;;;;;;18.70;10.07;;;2.50;46.70;;;;;;6067535;23;20183;-90
2022/03/13 07:15:24;;;;;;;13.47;8.70;;;2.60;46.20;;;;;;6067498;23;20506;-90
2022/03/13 07:17:49;;;;;;;13.83;9.03;;;2.70;46.10;;;;;;6067277;23;20164;-90
2022/03/13 07:20:15;;;;;;;14.87;8.40;;;2.80;46.30;;;;;;6067932;23;20180;-90
2022/03/13 07:22:42;;;;;;;14.40;8.77;;;2.80;45.00;;;;;;6067249;23;20212;-90
2022/03/13 07:25:09;;;;;;;13.40;8.93;;;2.90;44.70;;;;;;6067082;23;20166;-90
2022/03/13 07:27:34;;;;;;;16.23;9.20;;;2.90;44.10;;;;;;6068865;23;20155;-90
2022/03/13 07:30:00;;;;;;;16.97;9.07;;;3.00;45.50;;;;;;6066945;23;20223;-91
2022/03/13 07:32:26;;;;;;;17.67;8.90;;;3.10;44.80;;;;;;6067301;23;20201;-90
2022/03/13 07:34:51;;;;;;;12.80;9.03;;;3.20;44.70;;;;;;6067237;23;20155;-90
2022/03/13 07:37:17;;;;;;;15.27;8.93;;;3.30;44.20;;;;;;6067266;23;20535;-90
2022/03/13 07:39:47;;;;;;;15.47;10.10;;;3.30;43.30;;;;;;6068616;23;20202;-91
2022/03/13 07:42:13;;;;;;;19.73;9.73;;;3.30;43.50;;;;;;6067513;23;20228;-91
2022/03/13 07:44:39;;;;;;;13.07;8.27;;;3.50;43.80;;;;;;6067045;23;20244;-90
2022/03/13 07:47:04;;;;;;;14.43;8.80;;;3.60;43.60;;;;;;6067395;23;20191;-90
2022/03/13 07:49:30;;;;;;;13.50;8.77;;;3.60;41.20;;;;;;6067076;23;20185;-90
2022/03/13 07:51:56;;;;;;;16.57;8.90;;;3.70;41.90;;;;;;6066927;23;20157;-91
2022/03/13 07:54:21;;;;;;;14.10;9.77;;;3.80;41.40;;;;;;6067323;23;20189;-90
2022/03/13 07:56:47;;;;;;;13.83;9.03;;;3.90;41.30;;;;;;6067104;23;20154;-90
2022/03/13 07:59:13;;;;;;;14.27;8.57;;;4.00;41.60;;;;;;6066894;23;20629;-90
2022/03/13 08:01:38;;;;;;;11.50;8.23;;;4.10;41.50;;;;;;6068360;23;20210;-90
2022/03/13 08:04:06;;;;;;;13.77;8.50;;;4.10;41.00;;;;;;6066914;23;20521;-90
2022/03/13 08:06:35;;;;;;;12.93;7.67;;;4.30;41.20;;;;;;6067472;23;20159;-91
2022/03/13 08:09:04;;;;;;;12.70;8.70;;;4.30;41.80;;;;;;6067514;23;20165;-90
2022/03/13 08:11:32;;;;;;;11.30;7.60;;;4.50;41.40;;;;;;6066673;23;20540;-90
2022/03/13 08:13:57;;;;;;;13.70;7.87;;;4.60;40.70;;;;;;6066666;23;20183;-91
2022/03/13 08:16:23;;;;;;;13.93;8.33;;;4.70;39.70;;;;;;6067280;23;20241;-90
2022/03/13 08:18:49;;;;;;;13.83;8.40;;;4.80;40.30;;;;;;6066896;23;20171;-90
2022/03/13 08:21:16;;;;;;;16.37;8.47;;;4.80;39.50;;;;;;6066702;23;20187;-90
2022/03/13 08:23:41;;;;;;;15.30;8.40;;;5.00;39.60;;;;;;6066813;23;20155;-90
2022/03/13 08:26:07;;;;;;;12.27;8.13;;;5.00;38.90;;;;;;6066799;23;20646;-90
2022/03/13 08:28:32;;;;;;;15.00;8.33;;;5.10;37.70;;;;;;6066583;23;20199;-90
2022/03/13 08:30:58;;;;;;;13.47;8.67;;;5.10;39.20;;;;;;6066523;23;20290;-90
2022/03/13 08:33:24;;;;;;;12.93;8.60;;;5.30;40.30;;;;;;6066709;23;20262;-90
2022/03/13 08:35:49;;;;;;;11.87;7.97;;;5.30;40.40;;;;;;6067312;23;20250;-90
2022/03/13 08:38:16;;;;;;;11.93;8.40;;;5.40;40.00;;;;;;6068402;23;20279;-90
2022/03/13 08:40:41;;;;;;;18.43;9.43;;;5.40;39.00;;;;;;6066526;23;20519;-90
2022/03/13 08:43:07;;;;;;;14.50;8.43;;;5.40;38.50;;;;;;6068451;23;20194;-90
2022/03/13 08:45:33;;;;;;;11.43;7.80;;;5.50;38.40;;;;;;6066744;23;20160;-90
2022/03/13 08:47:58;;;;;;;16.03;8.87;;;5.50;39.20;;;;;;6066710;23;20191;-90
2022/03/13 08:50:24;;;;;;;12.43;7.77;;;5.60;37.60;;;;;;6068503;23;20584;-90
2022/03/13 08:52:50;;;;;;;14.73;8.00;;;5.60;38.00;;;;;;6068464;23;20235;-90
2022/03/13 08:55:18;;;;;;;13.73;7.67;;;5.80;37.60;;;;;;6068466;23;20207;-90
2022/03/13 08:57:45;;;;;;;14.03;7.63;;;5.70;37.20;;;;;;6068758;23;20481;-90
2022/03/13 09:00:15;;;;;;;12.10;7.73;;;5.80;37.80;;;;;;6068379;23;20181;-90
2022/03/13 09:02:42;;;;;;;11.33;7.77;;;5.90;37.10;;;;;;6068342;23;20688;-90
2022/03/13 09:05:08;;;;;;;13.03;8.27;;;5.90;38.20;;;;;;6069376;23;20211;-90
2022/03/13 09:07:34;;;;;;;11.27;7.80;;;6.00;36.20;;;;;;6068595;23;20168;-90
2022/03/13 09:10:02;;;;;;;12.57;7.60;;;6.10;36.20;;;;;;6068231;23;20212;-90
2022/03/13 09:12:30;;;;;;;13.57;8.60;;;6.20;35.90;;;;;;6068373;23;20481;-90
2022/03/13 09:14:56;;;;;;;13.57;7.40;;;6.30;37.10;;;;;;6069851;23;20160;-90
2022/03/13 09:17:21;;;;;;;14.77;8.40;;;6.30;35.70;;;;;;6068264;23;20239;-90
2022/03/13 09:19:47;;;;;;;14.73;7.90;;;6.30;35.80;;;;;;6068329;23;20232;-90
2022/03/13 09:22:14;;;;;;;11.00;7.30;;;6.40;36.30;;;;;;6069765;23;20463;-91
2022/03/13 09:24:40;;;;;;;11.40;7.67;;;6.40;36.10;;;;;;6068367;23;20622;-90
2022/03/13 09:27:05;;;;;;;14.37;8.83;;;6.50;36.00;;;;;;6068859;23;20165;-90
2022/03/13 09:29:31;;;;;;;10.90;7.17;;;6.70;37.00;;;;;;6067860;23;20198;-90
2022/03/13 09:31:57;;;;;;;15.10;8.37;;;6.70;35.60;;;;;;6069826;23;20478;-90
2022/03/13 09:34:22;;;;;;;15.87;7.77;;;6.80;35.80;;;;;;6067984;23;20197;-91
2022/03/13 09:36:48;;;;;;;12.87;8.23;;;6.90;36.00;;;;;;6069260;23;20174;-90
2022/03/13 09:39:13;;;;;;;11.80;7.37;;;7.00;35.80;;;;;;6069900;23;20153;-90
2022/03/13 09:41:39;;;;;;;12.80;7.93;;;7.10;35.70;;;;;;6067985;23;20163;-91
2022/03/13 09:44:07;;;;;;;13.77;8.13;;;7.10;35.30;;;;;;6067985;23;20161;-91
2022/03/13 09:46:35;;;;;;;11.07;7.80;;;7.30;36.20;;;;;;6070200;23;20154;-91
2022/03/13 09:49:00;;;;;;;11.47;7.37;;;7.30;35.50;;;;;;6068181;23;20217;-90
2022/03/13 09:51:26;;;;;;;12.67;7.83;;;7.30;35.10;;;;;;6068011;23;20178;-90
2022/03/13 09:53:52;;;;;;;18.00;7.47;;;7.30;35.50;;;;;;6067956;23;20250;-91
2022/03/13 09:56:18;;;;;;;14.13;8.23;;;7.50;34.70;;;;;;6069460;23;20215;-91
2022/03/13 09:58:45;;;;;;;13.17;7.93;;;7.70;35.40;;;;;;6067735;23;20158;-90
2022/03/13 10:01:11;;;;;;;15.63;8.37;;;7.80;34.80;;;;;;6067740;23;20182;-90
2022/03/13 10:03:38;;;;;;;15.13;8.70;;;7.90;35.40;;;;;;6067880;23;20166;-91
2022/03/13 10:06:03;;;;;;;11.90;7.80;;;7.90;35.30;;;;;;6068203;23;20160;-90
2022/03/13 10:08:31;;;;;;;12.07;8.00;;;8.10;34.70;;;;;;6067949;23;20164;-90
2022/03/13 10:10:58;;;;;;;9.67;7.57;;;8.20;34.20;;;;;;6069526;23;20171;-91
2022/03/13 10:13:42;;;;;;;13.20;8.53;;;8.30;34.90;;;;;;6067778;23;20207;-91
2022/03/13 10:16:19;;;;;;;10.93;8.03;;;8.30;34.70;;;;;;6068837;23;20222;-89
2022/03/13 10:18:46;;;;;;;12.13;7.77;;;8.60;34.90;;;;;;6069267;23;20585;-90
2022/03/13 10:21:13;;;;;;;13.67;7.97;;;8.80;34.10;;;;;;6068953;23;20700;-91
2022/03/13 10:23:40;;;;;;;10.47;7.40;;;8.90;34.10;;;;;;6067682;23;20276;-90
2022/03/13 10:26:06;;;;;;;12.70;7.77;;;8.80;33.50;;;;;;6067612;23;20160;-90
2022/03/13 10:28:36;;;;;;;14.77;8.47;;;8.80;35.00;;;;;;6067502;23;20155;-89
2022/03/13 10:31:02;;;;;;;10.63;8.20;;;8.80;33.50;;;;;;6067680;23;20247;-91
2022/03/13 10:33:43;;;;;;;12.23;7.97;;;8.90;33.60;;;;;;6069540;23;20175;-91
2022/03/13 10:36:14;;;;;;;16.20;8.47;;;9.10;33.60;;;;;;6069486;23;20199;-91
2022/03/13 10:38:41;;;;;;;13.60;8.37;;;9.10;34.30;;;;;;6067513;23;20162;-90
2022/03/13 10:41:10;;;;;;;10.37;7.97;;;9.30;33.40;;;;;;6067815;23;20183;-91
2022/03/13 10:43:55;;;;;;;16.23;7.93;;;9.40;33.50;;;;;;6068535;23;20163;-90
2022/03/13 10:46:28;;;;;;;10.43;8.03;;;9.50;33.60;;;;;;6067489;23;20151;-91
2022/03/13 10:48:54;;;;;;;11.67;7.70;;;9.40;32.90;;;;;;6067484;23;20187;-91
2022/03/13 10:51:33;;;;;;;13.77;7.80;;;9.40;33.90;;;;;;6067317;23;20194;-91
2022/03/13 10:53:59;;;;;;;9.93;7.60;;;9.50;33.60;;;;;;6067383;23;20206;-90
2022/03/13 10:56:24;;;;;;;14.90;7.83;;;9.70;32.90;;;;;;6067783;23;20475;-90
2022/03/13 10:58:50;;;;;;;10.57;7.70;;;9.80;32.40;;;;;;6069085;23;20481;-91
2022/03/13 11:01:18;;;;;;;14.80;7.73;;;9.80;33.10;;;;;;6067114;23;20175;-90
2022/03/13 11:03:55;;;;;;;16.50;7.40;;;9.80;32.30;;;;;;6069239;23;20492;-90
2022/03/13 11:06:22;;;;;;;9.90;7.10;;;9.80;32.60;;;;;;6069171;23;20238;-91
2022/03/13 11:08:51;;;;;;;11.27;7.30;;;10.10;31.70;;;;;;6069382;23;20163;-91
2022/03/13 11:11:18;;;;;;;12.13;7.37;;;10.00;32.50;;;;;;6067554;23;20215;-91
2022/03/13 11:13:52;;;;;;;11.27;7.77;;;10.10;32.30;;;;;;6067936;23;20186;-91
2022/03/13 11:16:29;;;;;;;14.77;7.43;;;10.10;32.60;;;;;;6068981;23;20157;-91
2022/03/13 11:19:04;;;;;;;12.33;7.20;;;10.20;31.70;;;;;;6068263;23;20238;-91
2022/03/13 11:21:31;;;;;;;14.60;7.73;;;10.20;31.80;;;;;;6067626;23;20181;-92
2022/03/13 11:23:57;;;;;;;11.13;8.20;;;10.20;32.70;;;;;;6068597;23;20246;-89
2022/03/13 11:26:25;;;;;;;9.70;7.33;;;10.30;31.80;;;;;;6068015;23;20163;-91
2022/03/13 11:28:53;;;;;;;10.07;7.53;;;10.40;31.10;;;;;;6068947;23;20162;-91
2022/03/13 11:31:37;;;;;;;13.30;7.60;;;10.40;31.30;;;;;;6051749;23;20285;-87
2022/03/13 11:34:18;;;;;;;11.50;7.40;;;10.50;30.80;;;;;;6069087;23;20182;-87
2022/03/13 11:36:45;;;;;;;12.63;7.57;;;10.70;30.50;;;;;;6044425;23;20183;-88
2022/03/13 11:39:22;;;;;;;9.33;7.17;;;10.80;30.30;;;;;;6045511;23;20162;-91
2022/03/13 11:41:48;;;;;;;10.60;7.00;;;11.00;31.10;;;;;;6046340;23;20178;-89
2022/03/13 11:44:22;;;;;;;11.10;6.47;;;11.00;29.50;;;;;;6044678;23;20610;-89
2022/03/13 11:46:50;;;;;;;9.83;7.00;;;10.90;29.90;;;;;;6044966;23;20217;-89
2022/03/13 11:49:31;;;;;;;11.53;7.00;;;11.20;29.50;;;;;;6044397;23;20160;-90
2022/03/13 11:52:11;;;;;;;10.47;6.77;;;11.30;29.50;;;;;;6044649;23;20190;-86
2022/03/13 11:54:46;;;;;;;8.87;6.57;;;11.30;30.00;;;;;;6047462;23;20183;-92
2022/03/13 11:57:14;;;;;;;14.67;7.03;;;11.40;29.30;;;;;;6045307;23;20155;-88
2022/03/13 11:59:39;;;;;;;7.73;6.57;;;11.40;29.60;;;;;;6043525;23;20241;-88
2022/03/13 12:02:10;;;;;;;7.63;5.93;;;11.60;29.40;;;;;;6043255;23;20179;-90
2022/03/13 12:04:35;;;;;;;11.63;6.97;;;11.60;31.20;;;;;;6068937;23;20170;-88
2022/03/13 12:07:01;;;;;;;11.63;6.63;;;11.60;31.00;;;;;;6069049;23;20592;-87
2022/03/13 12:09:30;;;;;;;10.33;7.60;;;11.60;30.10;;;;;;6043590;23;20549;-88
2022/03/13 12:12:06;;;;;;;15.80;7.57;;;11.60;30.10;;;;;;6043037;23;20246;-88
2022/03/13 12:14:54;;;;;;;8.90;6.20;;;11.60;29.70;;;;;;6043138;23;20490;-88
2022/03/13 12:17:25;;;;;;;13.43;7.33;;;11.60;29.70;;;;;;6042993;23;20474;-88
2022/03/13 12:19:55;;;;;;;18.57;6.30;;;11.70;29.60;;;;;;6068419;23;20176;-88
2022/03/13 12:22:22;;;;;;;8.97;6.37;;;11.50;28.00;;;;;;6043419;23;20185;-87
2022/03/13 12:25:07;;;;;;;10.07;6.33;;;11.70;30.20;;;;;;6044838;23;20215;-87
2022/03/13 12:27:33;;;;;;;9.33;5.97;;;11.70;28.40;;;;;;6045028;23;20151;-88
2022/03/13 12:29:59;;;;;;;10.77;6.63;;;11.90;28.80;;;;;;6070382;23;20183;-88
2022/03/13 12:32:33;;;;;;;11.60;6.70;;;11.90;28.50;;;;;;6066828;23;20552;-88
2022/03/13 12:35:00;;;;;;;8.13;6.20;;;12.00;29.10;;;;;;6066949;23;20161;-88
2022/03/13 12:37:27;;;;;;;10.07;6.40;;;12.20;29.00;;;;;;6066732;23;20159;-87
2022/03/13 12:39:58;;;;;;;13.20;6.53;;;11.90;28.70;;;;;;6066655;23;20179;-88
2022/03/13 12:42:26;;;;;;;9.17;6.60;;;11.90;29.10;;;;;;6066952;23;20152;-88
2022/03/13 12:45:10;;;;;;;16.30;6.27;;;12.10;29.40;;;;;;6067123;23;20199;-87
2022/03/13 12:47:46;;;;;;;10.67;6.60;;;12.30;29.10;;;;;;6066867;23;20210;-90